Terminal Aerodrome Forecast
Issued by NWS

Home | Current Version | Previous Version | Text Only | Print | Product List | Glossary On
Versions: 1 2 3 4 5 6 7 8 9 10 11 12 13 14 15 16 17
309
FTUS46 KPDT 121739
TAFRDM
TAF
KRDM 121739Z 1218/1318 17004KT P6SM SCT070
     FM122000 29009KT P6SM -RA OVC050
     FM130300 VRB04KT P6SM VCSH BKN050
     FM130600 VRB05KT P6SM BKN060
     FM131500 16006KT P6SM SCT060 SCT200=

USA.gov is the U.S. government's official web portal to all federal, state and local government web resources and services.